Аэропорт: Елизово. Петропавловск-Камчатский

ICAO: UHPP

METAR:
2024-04-22 21:00:00
UHPP 222100Z 18004MPS 9999 FEW013 02/M03 Q1012 R16R/CLRD60 NOSIG RMK QFE756/1008
TAF:
2024-04-22 19:32:00
TAF UHPP 221932Z 2221/2403 36003G10MPS 9999 NSC 
  BECMG 2300/2302 18005G12MPS 
  BECMG 2309/2311 36003G10MPS